EWG14PJ EDDL-LDRI
Flight info
| Callsign | EWG14PJ |
|---|---|
| Flight time | 1h 19m |
| Altitude | 35000 |
| Route | DODEN7Z DODEN Y853 BOMBI DCT DETEV DCT DINKU M867 XERUM DCT BAVAX DCT RADIZ DCT VEKEN/N0440F370 DCT GIRDA |
| Aircraft | A319/M-SDE3FGHIRWY/LB1 |
Departure
| Time | 2026-05-06 13:30 |
|---|---|
| Airport | Düsseldorf Airport (EDDL) |
Arrival
| Time | 2026-05-06 14:49 |
|---|---|
| Airport | Rijeka Airport (LDRI) |
| Time | Latitude | Longitude | Altitude | Speed | Heading |
|---|---|---|---|---|---|
| 2026-05-06 13:07 | 51.27668 | 6.75919 | 118 ft | 0 kts | 91° |
| 2026-05-06 13:10 | 51.27668 | 6.75918 | 118 ft | 0 kts | 91° |
| 2026-05-06 13:22 | 51.27670 | 6.75888 | 115 ft | 4 kts | 99° |
| 2026-05-06 13:23 | 51.27666 | 6.75854 | 116 ft | 4 kts | 51° |
| 2026-05-06 13:23 | 51.27647 | 6.75826 | 114 ft | 4 kts | 16° |
| 2026-05-06 13:23 | 51.27621 | 6.75827 | 115 ft | 4 kts | 336° |
| 2026-05-06 13:23 | 51.27610 | 6.75835 | 115 ft | 1 kts | 333° |
| 2026-05-06 13:26 | 51.27626 | 6.75823 | 115 ft | 5 kts | 337° |
| 2026-05-06 13:26 | 51.27673 | 6.75807 | 116 ft | 9 kts | 356° |
| 2026-05-06 13:27 | 51.27746 | 6.75809 | 118 ft | 11 kts | 0° |
| 2026-05-06 13:27 | 51.27832 | 6.75812 | 115 ft | 14 kts | 1° |
| 2026-05-06 13:27 | 51.27922 | 6.75815 | 117 ft | 10 kts | 2° |
| 2026-05-06 13:27 | 51.27982 | 6.75814 | 118 ft | 7 kts | 345° |
| 2026-05-06 13:28 | 51.28000 | 6.75759 | 118 ft | 5 kts | 264° |
| 2026-05-06 13:28 | 51.27978 | 6.75702 | 115 ft | 8 kts | 232° |
| 2026-05-06 13:28 | 51.27935 | 6.75613 | 118 ft | 12 kts | 233° |
| 2026-05-06 13:28 | 51.27878 | 6.75492 | 118 ft | 15 kts | 232° |
| 2026-05-06 13:29 | 51.27846 | 6.75356 | 115 ft | 12 kts | 297° |
| 2026-05-06 13:29 | 51.27909 | 6.75296 | 117 ft | 10 kts | 334° |
| 2026-05-06 13:29 | 51.27974 | 6.75268 | 116 ft | 11 kts | 3° |
| 2026-05-06 13:29 | 51.28066 | 6.75421 | 115 ft | 48 kts | 51° |
| 2026-05-06 13:30 | 51.28427 | 6.76176 | 116 ft | 122 kts | 53° |
| 2026-05-06 13:30 | 51.29050 | 6.77500 | 317 ft | 161 kts | 52° |
| 2026-05-06 13:30 | 51.29701 | 6.78908 | 1200 ft | 156 kts | 50° |
| 2026-05-06 13:30 | 51.30135 | 6.79825 | 1733 ft | 158 kts | 50° |
| 2026-05-06 13:31 | 51.30845 | 6.81314 | 2257 ft | 179 kts | 50° |
| 2026-05-06 13:31 | 51.31652 | 6.83002 | 2754 ft | 203 kts | 51° |
| 2026-05-06 13:31 | 51.32556 | 6.84894 | 3317 ft | 225 kts | 51° |
| 2026-05-06 13:31 | 51.33552 | 6.86995 | 3910 ft | 248 kts | 52° |
| 2026-05-06 13:32 | 51.34588 | 6.89297 | 4782 ft | 260 kts | 55° |
| 2026-05-06 13:32 | 51.35241 | 6.92044 | 5693 ft | 271 kts | 83° |
| 2026-05-06 13:32 | 51.35089 | 6.95067 | 6681 ft | 276 kts | 100° |
| 2026-05-06 13:32 | 51.34773 | 6.98112 | 7652 ft | 280 kts | 100° |
| 2026-05-06 13:33 | 51.34452 | 7.01210 | 8609 ft | 285 kts | 100° |
| 2026-05-06 13:33 | 51.34123 | 7.04376 | 9556 ft | 291 kts | 101° |
| 2026-05-06 13:33 | 51.33787 | 7.07612 | 10343 ft | 302 kts | 101° |
| 2026-05-06 13:33 | 51.33434 | 7.11065 | 10711 ft | 326 kts | 101° |
| 2026-05-06 13:34 | 51.32944 | 7.14667 | 11342 ft | 337 kts | 109° |
| 2026-05-06 13:34 | 51.31988 | 7.18102 | 12167 ft | 340 kts | 122° |
| 2026-05-06 13:34 | 51.30582 | 7.21158 | 13045 ft | 343 kts | 135° |
| 2026-05-06 13:34 | 51.28890 | 7.23864 | 13871 ft | 347 kts | 138° |
| 2026-05-06 13:35 | 51.27160 | 7.26586 | 14617 ft | 351 kts | 137° |
| 2026-05-06 13:35 | 51.25411 | 7.29336 | 15348 ft | 355 kts | 137° |
| 2026-05-06 13:35 | 51.23639 | 7.32127 | 16086 ft | 359 kts | 137° |
| 2026-05-06 13:35 | 51.22130 | 7.34507 | 16702 ft | 363 kts | 137° |
| 2026-05-06 13:36 | 51.20327 | 7.37352 | 17434 ft | 367 kts | 137° |
| 2026-05-06 13:36 | 51.18524 | 7.40190 | 18130 ft | 371 kts | 137° |
| 2026-05-06 13:36 | 51.16675 | 7.43093 | 18773 ft | 375 kts | 137° |
| 2026-05-06 13:36 | 51.14808 | 7.46017 | 19428 ft | 378 kts | 137° |
| 2026-05-06 13:37 | 51.12915 | 7.48942 | 20095 ft | 381 kts | 138° |
| 2026-05-06 13:37 | 51.10995 | 7.51878 | 20785 ft | 384 kts | 138° |
| 2026-05-06 13:37 | 51.09057 | 7.54821 | 21467 ft | 387 kts | 137° |
| 2026-05-06 13:37 | 51.07106 | 7.57782 | 22154 ft | 390 kts | 137° |
| 2026-05-06 13:38 | 51.05139 | 7.60769 | 22822 ft | 392 kts | 137° |
| 2026-05-06 13:38 | 51.03158 | 7.63776 | 23443 ft | 395 kts | 137° |
| 2026-05-06 13:38 | 51.01159 | 7.66811 | 23963 ft | 398 kts | 137° |
| 2026-05-06 13:38 | 50.99152 | 7.69856 | 24492 ft | 401 kts | 137° |
| 2026-05-06 13:39 | 50.97110 | 7.72884 | 24997 ft | 403 kts | 141° |
| 2026-05-06 13:39 | 50.94824 | 7.75474 | 25485 ft | 405 kts | 149° |
| 2026-05-06 13:39 | 50.92420 | 7.77830 | 25976 ft | 408 kts | 149° |
| 2026-05-06 13:39 | 50.90000 | 7.80200 | 26457 ft | 411 kts | 149° |
| 2026-05-06 13:40 | 50.87557 | 7.82600 | 26928 ft | 414 kts | 149° |
| 2026-05-06 13:40 | 50.85106 | 7.85011 | 27397 ft | 416 kts | 149° |
| 2026-05-06 13:40 | 50.82638 | 7.87439 | 27878 ft | 419 kts | 149° |
| 2026-05-06 13:40 | 50.80155 | 7.89880 | 28347 ft | 422 kts | 149° |
| 2026-05-06 13:41 | 50.77650 | 7.92339 | 28830 ft | 425 kts | 149° |
| 2026-05-06 13:41 | 50.75131 | 7.94804 | 29289 ft | 427 kts | 150° |
| 2026-05-06 13:41 | 50.72594 | 7.97282 | 29752 ft | 429 kts | 150° |
| 2026-05-06 13:41 | 50.70041 | 7.99773 | 30150 ft | 432 kts | 150° |
| 2026-05-06 13:42 | 50.67472 | 8.02276 | 30517 ft | 434 kts | 150° |
| 2026-05-06 13:42 | 50.64890 | 8.04786 | 30883 ft | 436 kts | 151° |
| 2026-05-06 13:42 | 50.62304 | 8.07296 | 31238 ft | 438 kts | 151° |
| 2026-05-06 13:42 | 50.59756 | 8.09953 | 31582 ft | 443 kts | 145° |
| 2026-05-06 13:43 | 50.57379 | 8.13053 | 32034 ft | 443 kts | 143° |
| 2026-05-06 13:43 | 50.55021 | 8.16169 | 32525 ft | 442 kts | 143° |
| 2026-05-06 13:43 | 50.52671 | 8.19261 | 32997 ft | 441 kts | 143° |
| 2026-05-06 13:43 | 50.50336 | 8.22323 | 33462 ft | 440 kts | 143° |
| 2026-05-06 13:44 | 50.47988 | 8.25392 | 33903 ft | 439 kts | 143° |
| 2026-05-06 13:44 | 50.45640 | 8.28457 | 34286 ft | 438 kts | 143° |
| 2026-05-06 13:44 | 50.43292 | 8.31517 | 34642 ft | 438 kts | 144° |
| 2026-05-06 13:44 | 50.40944 | 8.34569 | 34754 ft | 437 kts | 144° |
| 2026-05-06 13:45 | 50.38623 | 8.37584 | 34783 ft | 429 kts | 144° |
| 2026-05-06 13:45 | 50.31788 | 8.46458 | 34785 ft | 423 kts | 144° |
| 2026-05-06 13:46 | 50.27251 | 8.52311 | 34777 ft | 422 kts | 144° |
| 2026-05-06 13:46 | 50.22722 | 8.58150 | 34783 ft | 422 kts | 144° |
| 2026-05-06 13:47 | 50.18204 | 8.63974 | 34779 ft | 421 kts | 144° |
| 2026-05-06 13:47 | 50.13679 | 8.69780 | 34781 ft | 421 kts | 144° |
| 2026-05-06 13:48 | 50.09149 | 8.75571 | 34779 ft | 421 kts | 144° |
| 2026-05-06 13:48 | 50.05138 | 8.82267 | 34774 ft | 430 kts | 127° |
| 2026-05-06 13:49 | 50.02399 | 8.90610 | 34764 ft | 434 kts | 120° |
| 2026-05-06 13:49 | 49.99765 | 8.99071 | 34757 ft | 435 kts | 120° |
| 2026-05-06 13:50 | 49.97111 | 9.07523 | 34755 ft | 435 kts | 120° |
| 2026-05-06 13:50 | 49.94452 | 9.15975 | 34749 ft | 436 kts | 120° |
| 2026-05-06 13:51 | 49.91786 | 9.24442 | 34748 ft | 436 kts | 120° |
| 2026-05-06 13:51 | 49.89123 | 9.32902 | 34749 ft | 437 kts | 120° |
| 2026-05-06 13:52 | 49.86450 | 9.41359 | 34748 ft | 437 kts | 121° |
| 2026-05-06 13:52 | 49.83757 | 9.49811 | 34747 ft | 437 kts | 122° |
| 2026-05-06 13:53 | 49.80225 | 9.57284 | 34749 ft | 426 kts | 140° |
| 2026-05-06 13:53 | 49.75908 | 9.63539 | 34757 ft | 425 kts | 142° |
| 2026-05-06 13:54 | 49.71596 | 9.69805 | 34762 ft | 426 kts | 142° |
| 2026-05-06 13:54 | 49.67275 | 9.76066 | 34773 ft | 426 kts | 142° |
| 2026-05-06 13:55 | 49.62949 | 9.82312 | 34782 ft | 425 kts | 142° |
| 2026-05-06 13:55 | 49.58650 | 9.88500 | 34783 ft | 425 kts | 142° |
| 2026-05-06 13:56 | 49.54291 | 9.94744 | 34789 ft | 425 kts | 143° |
| 2026-05-06 13:56 | 49.49992 | 10.00903 | 34794 ft | 425 kts | 143° |
| 2026-05-06 13:57 | 49.45637 | 10.07117 | 34795 ft | 424 kts | 143° |
| 2026-05-06 13:57 | 49.41308 | 10.13279 | 34794 ft | 424 kts | 143° |
| 2026-05-06 13:58 | 49.36974 | 10.19423 | 34795 ft | 424 kts | 143° |
| 2026-05-06 13:58 | 49.32645 | 10.25552 | 34779 ft | 424 kts | 143° |
| 2026-05-06 13:59 | 49.28332 | 10.31647 | 34783 ft | 423 kts | 143° |
| 2026-05-06 13:59 | 49.23971 | 10.37699 | 34788 ft | 420 kts | 148° |
| 2026-05-06 14:00 | 49.19095 | 10.42426 | 34788 ft | 414 kts | 155° |
| 2026-05-06 14:00 | 49.14144 | 10.46932 | 34789 ft | 414 kts | 155° |
| 2026-05-06 14:01 | 49.09197 | 10.51432 | 34787 ft | 414 kts | 155° |
| 2026-05-06 14:01 | 49.04246 | 10.55931 | 34795 ft | 414 kts | 155° |
| 2026-05-06 14:02 | 48.99294 | 10.60422 | 34800 ft | 414 kts | 155° |
| 2026-05-06 14:02 | 48.94327 | 10.64891 | 34804 ft | 414 kts | 155° |
| 2026-05-06 14:03 | 48.89374 | 10.69349 | 34802 ft | 414 kts | 155° |
| 2026-05-06 14:03 | 48.84425 | 10.73808 | 34799 ft | 414 kts | 155° |
| 2026-05-06 14:04 | 48.79767 | 10.79044 | 34787 ft | 425 kts | 140° |
| 2026-05-06 14:04 | 48.75784 | 10.85757 | 34765 ft | 427 kts | 139° |
| 2026-05-06 14:05 | 48.71797 | 10.92443 | 34758 ft | 427 kts | 139° |
| 2026-05-06 14:05 | 48.67792 | 10.99109 | 34737 ft | 428 kts | 139° |
| 2026-05-06 14:06 | 48.63810 | 11.05753 | 34742 ft | 428 kts | 139° |
| 2026-05-06 14:06 | 48.59806 | 11.12426 | 34731 ft | 428 kts | 139° |
| 2026-05-06 14:07 | 48.55798 | 11.19088 | 34734 ft | 428 kts | 140° |
| 2026-05-06 14:07 | 48.51776 | 11.25737 | 34734 ft | 428 kts | 140° |
| 2026-05-06 14:08 | 48.48435 | 11.31246 | 34736 ft | 428 kts | 140° |
| 2026-05-06 14:08 | 48.44415 | 11.37873 | 34740 ft | 428 kts | 140° |
| 2026-05-06 14:09 | 48.40393 | 11.44486 | 34740 ft | 427 kts | 140° |
| 2026-05-06 14:09 | 48.36374 | 11.51071 | 34745 ft | 427 kts | 140° |
| 2026-05-06 14:10 | 48.32362 | 11.57637 | 34749 ft | 426 kts | 140° |
| 2026-05-06 14:10 | 48.28347 | 11.64182 | 34748 ft | 425 kts | 140° |
| 2026-05-06 14:11 | 48.24271 | 11.70587 | 34749 ft | 422 kts | 143° |
| 2026-05-06 14:11 | 48.19968 | 11.76506 | 34744 ft | 418 kts | 146° |
| 2026-05-06 14:12 | 48.15604 | 11.82271 | 34738 ft | 418 kts | 146° |
| 2026-05-06 14:12 | 48.11266 | 11.88119 | 34733 ft | 419 kts | 146° |
| 2026-05-06 14:13 | 48.06977 | 11.94001 | 34727 ft | 419 kts | 146° |
| 2026-05-06 14:13 | 48.02677 | 11.99899 | 34720 ft | 419 kts | 146° |
| 2026-05-06 14:14 | 47.98368 | 12.05769 | 34719 ft | 419 kts | 146° |
| 2026-05-06 14:14 | 47.94055 | 12.11619 | 34721 ft | 419 kts | 146° |
| 2026-05-06 14:15 | 47.89742 | 12.17447 | 34715 ft | 418 kts | 147° |
| 2026-05-06 14:15 | 47.85449 | 12.23243 | 34713 ft | 418 kts | 147° |
| 2026-05-06 14:16 | 47.81134 | 12.29069 | 34714 ft | 418 kts | 147° |
| 2026-05-06 14:16 | 47.76815 | 12.34875 | 34708 ft | 418 kts | 147° |
| 2026-05-06 14:17 | 47.72527 | 12.40635 | 34708 ft | 418 kts | 147° |
| 2026-05-06 14:17 | 47.68211 | 12.46416 | 34704 ft | 417 kts | 147° |
| 2026-05-06 14:18 | 47.63890 | 12.52171 | 34706 ft | 416 kts | 148° |
| 2026-05-06 14:18 | 47.59136 | 12.56714 | 34709 ft | 403 kts | 160° |
| 2026-05-06 14:19 | 47.54201 | 12.60671 | 34713 ft | 403 kts | 160° |
| 2026-05-06 14:19 | 47.49254 | 12.64641 | 34716 ft | 403 kts | 160° |
| 2026-05-06 14:20 | 47.44320 | 12.68614 | 34722 ft | 403 kts | 160° |
| 2026-05-06 14:20 | 47.39398 | 12.72573 | 34726 ft | 402 kts | 160° |
| 2026-05-06 14:21 | 47.34501 | 12.76493 | 34733 ft | 402 kts | 160° |
| 2026-05-06 14:21 | 47.29568 | 12.80425 | 34741 ft | 403 kts | 160° |
| 2026-05-06 14:22 | 47.24625 | 12.84358 | 34747 ft | 405 kts | 160° |
| 2026-05-06 14:22 | 47.19656 | 12.88307 | 34755 ft | 406 kts | 160° |
| 2026-05-06 14:23 | 47.14687 | 12.92266 | 34769 ft | 407 kts | 159° |
| 2026-05-06 14:23 | 47.09662 | 12.96242 | 34784 ft | 410 kts | 159° |
| 2026-05-06 14:24 | 47.04624 | 13.00217 | 34802 ft | 411 kts | 159° |
| 2026-05-06 14:24 | 46.99609 | 13.04170 | 34824 ft | 411 kts | 159° |
| 2026-05-06 14:25 | 46.94561 | 13.08157 | 34838 ft | 413 kts | 159° |
| 2026-05-06 14:25 | 46.89502 | 13.12135 | 34842 ft | 412 kts | 159° |
| 2026-05-06 14:26 | 46.84445 | 13.16092 | 34764 ft | 414 kts | 159° |
| 2026-05-06 14:26 | 46.81903 | 13.18074 | 34517 ft | 413 kts | 159° |
| 2026-05-06 14:26 | 46.79364 | 13.20054 | 34283 ft | 413 kts | 159° |
| 2026-05-06 14:27 | 46.76836 | 13.22029 | 34044 ft | 413 kts | 159° |
| 2026-05-06 14:27 | 46.74310 | 13.24007 | 33789 ft | 412 kts | 159° |
| 2026-05-06 14:27 | 46.71778 | 13.25982 | 33215 ft | 412 kts | 160° |
| 2026-05-06 14:27 | 46.69247 | 13.27950 | 32629 ft | 412 kts | 160° |
| 2026-05-06 14:28 | 46.66721 | 13.29911 | 32043 ft | 410 kts | 160° |
| 2026-05-06 14:28 | 46.64212 | 13.31861 | 31479 ft | 406 kts | 159° |
| 2026-05-06 14:28 | 46.61747 | 13.33775 | 30937 ft | 406 kts | 160° |
| 2026-05-06 14:28 | 46.59255 | 13.35703 | 30378 ft | 404 kts | 160° |
| 2026-05-06 14:29 | 46.56781 | 13.37615 | 29822 ft | 400 kts | 160° |
| 2026-05-06 14:29 | 46.54323 | 13.39470 | 29212 ft | 396 kts | 161° |
| 2026-05-06 14:29 | 46.51855 | 13.41245 | 28602 ft | 393 kts | 161° |
| 2026-05-06 14:29 | 46.49399 | 13.42962 | 28004 ft | 390 kts | 161° |
| 2026-05-06 14:30 | 46.46963 | 13.44646 | 27421 ft | 386 kts | 162° |
| 2026-05-06 14:30 | 46.44543 | 13.46318 | 26851 ft | 383 kts | 161° |
| 2026-05-06 14:30 | 46.42136 | 13.47991 | 26291 ft | 382 kts | 161° |
| 2026-05-06 14:30 | 46.39751 | 13.49662 | 25740 ft | 380 kts | 161° |
| 2026-05-06 14:31 | 46.37373 | 13.51336 | 25206 ft | 378 kts | 161° |
| 2026-05-06 14:31 | 46.35013 | 13.53001 | 24661 ft | 376 kts | 160° |
| 2026-05-06 14:31 | 46.32662 | 13.54658 | 24147 ft | 375 kts | 160° |
| 2026-05-06 14:31 | 46.30324 | 13.56303 | 23634 ft | 372 kts | 160° |
| 2026-05-06 14:32 | 46.27995 | 13.57936 | 23062 ft | 373 kts | 160° |
| 2026-05-06 14:32 | 46.25661 | 13.59568 | 22464 ft | 372 kts | 160° |
| 2026-05-06 14:32 | 46.23330 | 13.61197 | 21882 ft | 372 kts | 160° |
| 2026-05-06 14:32 | 46.21031 | 13.62803 | 21320 ft | 373 kts | 159° |
| 2026-05-06 14:33 | 46.18698 | 13.64432 | 20757 ft | 372 kts | 159° |
| 2026-05-06 14:33 | 46.16335 | 13.66078 | 20236 ft | 373 kts | 159° |
| 2026-05-06 14:33 | 46.14034 | 13.67685 | 19739 ft | 371 kts | 159° |
| 2026-05-06 14:33 | 46.11727 | 13.69298 | 19260 ft | 367 kts | 159° |
| 2026-05-06 14:34 | 46.09418 | 13.70912 | 18774 ft | 363 kts | 159° |
| 2026-05-06 14:34 | 46.07150 | 13.72492 | 18309 ft | 360 kts | 159° |
| 2026-05-06 14:34 | 46.04929 | 13.74039 | 17793 ft | 357 kts | 159° |
| 2026-05-06 14:34 | 46.02705 | 13.75586 | 17265 ft | 354 kts | 159° |
| 2026-05-06 14:35 | 46.00498 | 13.77118 | 16740 ft | 350 kts | 159° |
| 2026-05-06 14:35 | 45.98307 | 13.78629 | 16222 ft | 348 kts | 159° |
| 2026-05-06 14:35 | 45.96138 | 13.80120 | 15708 ft | 342 kts | 159° |
| 2026-05-06 14:35 | 45.94034 | 13.81570 | 15215 ft | 329 kts | 159° |
| 2026-05-06 14:36 | 45.92002 | 13.82973 | 14727 ft | 320 kts | 159° |
| 2026-05-06 14:36 | 45.90012 | 13.84347 | 14248 ft | 315 kts | 160° |
| 2026-05-06 14:36 | 45.88046 | 13.85703 | 13777 ft | 313 kts | 160° |
| 2026-05-06 14:36 | 45.86089 | 13.87051 | 13250 ft | 310 kts | 160° |
| 2026-05-06 14:37 | 45.84151 | 13.88387 | 12831 ft | 309 kts | 159° |
| 2026-05-06 14:37 | 45.82217 | 13.89717 | 12496 ft | 307 kts | 160° |
| 2026-05-06 14:37 | 45.80294 | 13.91039 | 12161 ft | 306 kts | 160° |
| 2026-05-06 14:37 | 45.78378 | 13.92356 | 11834 ft | 304 kts | 159° |
| 2026-05-06 14:38 | 45.76476 | 13.93661 | 11506 ft | 302 kts | 159° |
| 2026-05-06 14:38 | 45.74585 | 13.94958 | 11187 ft | 301 kts | 159° |
| 2026-05-06 14:38 | 45.72701 | 13.96250 | 10871 ft | 300 kts | 159° |
| 2026-05-06 14:38 | 45.70818 | 13.97540 | 10549 ft | 299 kts | 159° |
| 2026-05-06 14:39 | 45.68946 | 13.98819 | 10239 ft | 299 kts | 160° |
| 2026-05-06 14:39 | 45.67066 | 14.00100 | 9928 ft | 299 kts | 160° |
| 2026-05-06 14:39 | 45.65200 | 14.01373 | 9583 ft | 294 kts | 159° |
| 2026-05-06 14:39 | 45.63386 | 14.02616 | 9238 ft | 284 kts | 159° |
| 2026-05-06 14:40 | 45.61627 | 14.03822 | 8890 ft | 278 kts | 159° |
| 2026-05-06 14:40 | 45.59892 | 14.05007 | 8563 ft | 276 kts | 160° |
| 2026-05-06 14:40 | 45.58165 | 14.06182 | 8233 ft | 274 kts | 160° |
| 2026-05-06 14:40 | 45.56445 | 14.07352 | 7905 ft | 273 kts | 160° |
| 2026-05-06 14:41 | 45.54727 | 14.08518 | 7598 ft | 272 kts | 159° |
| 2026-05-06 14:41 | 45.53022 | 14.09676 | 7375 ft | 271 kts | 159° |
| 2026-05-06 14:41 | 45.51319 | 14.10831 | 7153 ft | 270 kts | 159° |
| 2026-05-06 14:41 | 45.49629 | 14.12005 | 6937 ft | 271 kts | 155° |
| 2026-05-06 14:42 | 45.48136 | 14.13677 | 6714 ft | 277 kts | 138° |
| 2026-05-06 14:42 | 45.47040 | 14.15969 | 6491 ft | 285 kts | 120° |
| 2026-05-06 14:42 | 45.46379 | 14.18655 | 6278 ft | 287 kts | 111° |
| 2026-05-06 14:42 | 45.45784 | 14.21346 | 6038 ft | 281 kts | 111° |
| 2026-05-06 14:43 | 45.45208 | 14.23942 | 5802 ft | 268 kts | 112° |
| 2026-05-06 14:43 | 45.44658 | 14.26399 | 5578 ft | 255 kts | 113° |
| 2026-05-06 14:43 | 45.44124 | 14.28768 | 5350 ft | 248 kts | 113° |
| 2026-05-06 14:43 | 45.43602 | 14.31071 | 5126 ft | 242 kts | 113° |
| 2026-05-06 14:44 | 45.43091 | 14.33325 | 4910 ft | 236 kts | 114° |
| 2026-05-06 14:44 | 45.42332 | 14.35309 | 4675 ft | 222 kts | 137° |
| 2026-05-06 14:44 | 45.41188 | 14.36683 | 4452 ft | 212 kts | 149° |
| 2026-05-06 14:45 | 45.38836 | 14.39145 | 3987 ft | 207 kts | 149° |
| 2026-05-06 14:45 | 45.37692 | 14.40346 | 3861 ft | 200 kts | 149° |
| 2026-05-06 14:45 | 45.36587 | 14.41503 | 3677 ft | 196 kts | 149° |
| 2026-05-06 14:45 | 45.35492 | 14.42648 | 3440 ft | 195 kts | 148° |
| 2026-05-06 14:46 | 45.34767 | 14.43407 | 3274 ft | 196 kts | 148° |
| 2026-05-06 14:46 | 45.33666 | 14.44558 | 3011 ft | 197 kts | 148° |
| 2026-05-06 14:46 | 45.32565 | 14.45710 | 2765 ft | 197 kts | 148° |
| 2026-05-06 14:46 | 45.31450 | 14.46874 | 2466 ft | 200 kts | 146° |
| 2026-05-06 14:47 | 45.30333 | 14.48042 | 2175 ft | 199 kts | 145° |
| 2026-05-06 14:47 | 45.29225 | 14.49199 | 1921 ft | 196 kts | 143° |
| 2026-05-06 14:47 | 45.28143 | 14.50328 | 1643 ft | 190 kts | 143° |
| 2026-05-06 14:47 | 45.27109 | 14.51406 | 1400 ft | 177 kts | 143° |
| 2026-05-06 14:48 | 45.26157 | 14.52398 | 1178 ft | 163 kts | 144° |
| 2026-05-06 14:48 | 45.25306 | 14.53286 | 973 ft | 141 kts | 144° |
| 2026-05-06 14:48 | 45.24561 | 14.54063 | 801 ft | 127 kts | 145° |
| 2026-05-06 14:48 | 45.23859 | 14.54790 | 627 ft | 122 kts | 145° |
| 2026-05-06 14:49 | 45.23178 | 14.55498 | 449 ft | 121 kts | 145° |
| 2026-05-06 14:49 | 45.22506 | 14.56208 | 300 ft | 120 kts | 144° |
| 2026-05-06 14:49 | 45.21938 | 14.56798 | 266 ft | 66 kts | 143° |
| 2026-05-06 14:49 | 45.21732 | 14.57011 | 264 ft | 27 kts | 144° |
| 2026-05-06 14:50 | 45.21620 | 14.57127 | 263 ft | 9 kts | 144° |
| 2026-05-06 14:50 | 45.21608 | 14.57194 | 263 ft | 8 kts | 36° |
| 2026-05-06 14:50 | 45.21663 | 14.57202 | 264 ft | 8 kts | 3° |
| 2026-05-06 14:50 | 45.21723 | 14.57206 | 264 ft | 9 kts | 2° |
| 2026-05-06 14:51 | 45.21786 | 14.57204 | 264 ft | 9 kts | 345° |
| 2026-05-06 14:51 | 45.21840 | 14.57151 | 265 ft | 9 kts | 323° |
| 2026-05-06 14:51 | 45.21881 | 14.57108 | 265 ft | 6 kts | 323° |
| 2026-05-06 14:51 | 45.21904 | 14.57091 | 265 ft | 3 kts | 349° |
| 2026-05-06 14:52 | 45.21920 | 14.57112 | 266 ft | 3 kts | 72° |
| 2026-05-06 14:52 | 45.21916 | 14.57145 | 265 ft | 2 kts | 103° |
| 2026-05-06 14:52 | 45.21914 | 14.57155 | 265 ft | 0 kts | 106° |